| time (UTC) | temp C | wind direction | speed KPH | gust KPH | rain 1hr cm | rain 24hr cm | rain mn cm | humidity % | barometer mb |
| 20260503013027 | 19 | 360 | 3.2 | 9.7 | 0.00 | 0.00 | 0.00 | 32 | 1011.0 |
| 20260503011528 | 19 | 63 | 4.8 | 9.7 | 0.00 | 0.00 | 0.00 | 32 | 1010.9 |
| 20260503010026 | 20 | 360 | 4.8 | 17.7 | 0.00 | 0.00 | 0.00 | 31 | 1011.0 |
| 20260503004529 | 20 | 360 | 8.0 | 19.3 | 0.00 | 0.00 | 0.00 | 33 | 1011.2 |
| 20260503003039 | 20 | 360 | 12.9 | 17.7 | 0.00 | 0.00 | 0.00 | 31 | 1011.3 |
| 20260503001542 | 20 | 360 | 14.5 | 19.3 | 0.00 | 0.00 | 0.00 | 30 | 1011.4 |
| 20260503000022 | 20 | 360 | 9.7 | 22.5 | 0.00 | 0.00 | 0.00 | 31 | 1011.5 |
| 20260502234523 | 20 | 360 | 11.3 | 17.7 | 0.00 | 0.00 | 0.00 | 32 | 1011.5 |
| 20260502233025 | 20 | 87 | 11.3 | 19.3 | 0.00 | 0.00 | 0.00 | 31 | 1011.7 |
| 20260502231520 | 20 | 360 | 9.7 | 19.3 | 0.00 | 0.00 | 0.00 | 30 | 1011.8 |
| 20260502230026 | 21 | 80 | 3.2 | 16.1 | 0.00 | 0.00 | 0.00 | 29 | 1012.1 |
| 20260502224518 | 20 | 360 | 1.6 | 4.8 | 0.00 | 0.00 | 0.00 | 30 | 1012.2 |
| 20260502223018 | 20 | 350 | 3.2 | 12.9 | 0.00 | 0.00 | 0.00 | 31 | 1012.5 |
| 20260502221517 | 20 | 26 | 3.2 | 24.1 | 0.00 | 0.00 | 0.00 | 29 | 1012.5 |
| 20260502220017 | 20 | 360 | 14.5 | 22.5 | 0.00 | 0.00 | 0.00 | 29 | 1012.6 |
| 20260502214516 | 21 | 360 | 9.7 | 16.1 | 0.00 | 0.00 | 0.00 | 29 | 1012.7 |
| 20260502213017 | 20 | 360 | 6.4 | 16.1 | 0.00 | 0.00 | 0.00 | 30 | 1012.8 |
| 20260502211517 | 20 | 360 | 9.7 | 17.7 | 0.00 | 0.00 | 0.00 | 30 | 1013.0 |
| 20260502210013 | 20 | 26 | 4.8 | 16.1 | 0.00 | 0.00 | 0.00 | 31 | 1013.1 |
| 20260502204513 | 20 | 360 | 6.4 | 20.9 | 0.00 | 0.00 | 0.00 | 32 | 1013.2 |
| 20260502203009 | 20 | 325 | 8.0 | 14.5 | 0.00 | 0.00 | 0.00 | 32 | 1013.4 |
| 20260502201509 | 19 | 36 | 9.7 | 22.5 | 0.00 | 0.00 | 0.00 | 32 | 1013.5 |
| 20260502200008 | 20 | 360 | 12.9 | 25.7 | 0.00 | 0.00 | 0.00 | 31 | 1013.8 |
| 20260502194504 | 19 | 360 | 4.8 | 20.9 | 0.00 | 0.00 | 0.00 | 33 | 1013.9 |
| 20260502193006 | 18 | 360 | 8.0 | 20.9 | 0.00 | 0.00 | 0.00 | 33 | 1014.1 |
| 20260502191502 | 18 | 360 | 6.4 | 22.5 | 0.00 | 0.00 | 0.00 | 34 | 1014.3 |
| 20260502190001 | 18 | 360 | 9.7 | 24.1 | 0.00 | 0.00 | 0.00 | 35 | 1014.4 |
| 20260502184612 | 18 | 360 | 19.3 | 30.6 | 0.00 | 0.00 | 0.00 | 35 | 1014.7 |
| 20260502183104 | 17 | 360 | 12.9 | 27.4 | 0.00 | 0.00 | 0.00 | 35 | 1014.8 |
| 20260502181608 | 17 | 360 | 9.7 | 22.5 | 0.00 | 0.00 | 0.00 | 36 | 1015.0 |
| 20260502163052 | 14 | 360 | 6.4 | 19.3 | 0.00 | 0.00 | 0.00 | 42 | 1015.3 |
| 20260502161539 | 14 | 360 | 8.0 | 17.7 | 0.00 | 0.00 | 0.00 | 43 | 1015.3 |
| 20260502151531 | 13 | 118 | 1.6 | 6.4 | 0.00 | 0.00 | 0.00 | 45 | 1015.4 |
| 20260502123000 | 6 | 360 | 8.0 | 16.1 | 0.00 | 0.00 | 0.00 | 66 | 1013.6 |
| 20260502121559 | 5 | 360 | 9.7 | 14.5 | 0.00 | 0.00 | 0.00 | 65 | 1013.4 |
| 20260502114559 | 6 | 360 | 4.8 | 9.7 | 0.00 | 0.00 | 0.00 | 61 | 1013.4 |
| 20260502113054 | 6 | 360 | 6.4 | 16.1 | 0.00 | 0.00 | 0.00 | 60 | 1013.2 |
| 20260502111554 | 5 | 360 | 4.8 | 9.7 | 0.00 | 0.00 | 0.00 | 59 | 1013.0 |
| 20260502110059 | 5 | 360 | 1.6 | 4.8 | 0.00 | 0.00 | 0.00 | 57 | 1013.1 |
| 20260502104552 | 5 | 360 | 3.2 | 6.4 | 0.00 | 0.00 | 0.00 | 56 | 1012.8 |
| 20260502103056 | 5 | 360 | 3.2 | 6.4 | 0.00 | 0.00 | 0.00 | 55 | 1012.7 |
| 20260502101606 | 5 | 360 | 4.8 | 8.0 | 0.00 | 0.00 | 0.00 | 54 | 1012.7 |
| 20260502100105 | 6 | 360 | 8.0 | 12.9 | 0.00 | 0.00 | 0.00 | 52 | 1012.5 |
| 20260502071523 | 7 | 360 | 1.6 | 4.8 | 0.00 | 0.00 | 0.00 | 49 | 1011.7 |
| 20260502070031 | 8 | 360 | 3.2 | 8.0 | 0.00 | 0.00 | 0.00 | 49 | 1011.7 |
| 20260502064519 | 7 | 360 | 0.0 | 4.8 | 0.00 | 0.00 | 0.00 | 45 | 1011.6 |
| 20260502063016 | 8 | 360 | 3.2 | 6.4 | 0.00 | 0.00 | 0.00 | 44 | 1011.5 |
| 20260502061513 | 9 | 360 | 0.0 | 1.6 | 0.00 | 0.00 | 0.00 | 41 | 1011.5 |
| 20260502060008 | 10 | 360 | 4.8 | 9.7 | 0.00 | 0.00 | 0.00 | 40 | 1011.4 |
| 20260502054507 | 10 | 360 | 4.8 | 16.1 | 0.00 | 0.00 | 0.00 | 39 | 1011.3 |
| 20260502053007 | 10 | 360 | 6.4 | 12.9 | 0.00 | 0.00 | 0.00 | 41 | 1011.3 |
| 20260502051519 | 10 | 360 | 6.4 | 12.9 | 0.00 | 0.00 | 0.00 | 42 | 1011.2 |
| 20260502050007 | 11 | 360 | 4.8 | 9.7 | 0.00 | 0.00 | 0.00 | 42 | 1011.2 |
| 20260502044506 | 11 | 360 | 11.3 | 14.5 | 0.00 | 0.00 | 0.00 | 43 | 1011.2 |
| 20260502043012 | 12 | 360 | 6.4 | 12.9 | 0.00 | 0.00 | 0.00 | 40 | 1011.2 |
| 20260502041506 | 12 | 360 | 9.7 | 16.1 | 0.00 | 0.00 | 0.00 | 39 | 1011.0 |
| 20260502040005 | 13 | 360 | 3.2 | 6.4 | 0.00 | 0.00 | 0.00 | 37 | 1010.6 |
| 20260502034504 | 13 | 360 | 6.4 | 8.0 | 0.00 | 0.00 | 0.00 | 36 | 1010.6 |
| 20260502033005 | 14 | 360 | 3.2 | 4.8 | 0.00 | 0.00 | 0.00 | 35 | 1010.6 |
| 20260502031503 | 15 | 360 | 4.8 | 6.4 | 0.00 | 0.00 | 0.00 | 34 | 1010.5 |
| 20260502030004 | 16 | 360 | 3.2 | 4.8 | 0.00 | 0.00 | 0.00 | 31 | 1010.4 |
| 20260502024507 | 17 | 360 | 4.8 | 8.0 | 0.00 | 0.00 | 0.00 | 30 | 1010.2 |
| 20260502023002 | 18 | 360 | 3.2 | 6.4 | 0.00 | 0.00 | 0.00 | 29 | 1010.1 |
| 20260502021501 | 20 | 227 | 1.6 | 4.8 | 0.00 | 0.00 | 0.00 | 25 | 1010.1 |
| 20260502020104 | 22 | 228 | 3.2 | 4.8 | 0.00 | 0.00 | 0.00 | 24 | 1010.0 |
| 20260502014605 | 23 | 360 | 1.6 | 4.8 | 0.00 | 0.00 | 0.00 | 20 | 1010.0 |